sensor_id;sensor_type;location;lat;lon;timestamp;pressure;altitude;pressure_sealevel;temperature;humidity
55217;BME280;41086;46.736;15.666;2022-10-23T00:06:27;98902.50;;;6.29;100.00
55217;BME280;41086;46.736;15.666;2022-10-23T00:08:55;98910.41;;;6.29;100.00
55217;BME280;41086;46.736;15.666;2022-10-23T00:11:24;98913.13;;;6.28;100.00
55217;BME280;41086;46.736;15.666;2022-10-23T00:13:59;98913.97;;;6.28;100.00
55217;BME280;41086;46.736;15.666;2022-10-23T00:16:27;98912.97;;;6.31;100.00
55217;BME280;41086;46.736;15.666;2022-10-23T00:18:54;98912.03;;;6.32;100.00
55217;BME280;41086;46.736;15.666;2022-10-23T00:21:22;98915.41;;;6.35;100.00
55217;BME280;41086;46.736;15.666;2022-10-23T00:23:49;98905.22;;;6.28;100.00
55217;BME280;41086;46.736;15.666;2022-10-23T00:26:16;98913.13;;;6.28;100.00
55217;BME280;41086;46.736;15.666;2022-10-23T00:28:44;98909.75;;;6.24;100.00
55217;BME280;41086;46.736;15.666;2022-10-23T00:31:12;98917.56;;;6.26;100.00
55217;BME280;41086;46.736;15.666;2022-10-23T00:33:39;98908.84;;;6.25;100.00
55217;BME280;41086;46.736;15.666;2022-10-23T00:36:07;98921.06;;;6.26;100.00
55217;BME280;41086;46.736;15.666;2022-10-23T00:38:35;98916.13;;;6.18;100.00
55217;BME280;41086;46.736;15.666;2022-10-23T00:41:03;98909.75;;;6.24;100.00
55217;BME280;41086;46.736;15.666;2022-10-23T00:43:32;98920.06;;;6.29;100.00
55217;BME280;41086;46.736;15.666;2022-10-23T00:45:59;98911.03;;;6.34;100.00
55217;BME280;41086;46.736;15.666;2022-10-23T00:48:27;98903.94;;;6.36;100.00
55217;BME280;41086;46.736;15.666;2022-10-23T00:50:55;98914.13;;;6.44;100.00
55217;BME280;41086;46.736;15.666;2022-10-23T00:53:23;98920.31;;;6.43;100.00
55217;BME280;41086;46.736;15.666;2022-10-23T00:55:51;98913.41;;;6.40;100.00
55217;BME280;41086;46.736;15.666;2022-10-23T00:58:20;98921.56;;;6.55;100.00
55217;BME280;41086;46.736;15.666;2022-10-23T01:00:52;98916.00;;;6.61;100.00
55217;BME280;41086;46.736;15.666;2022-10-23T01:03:24;98927.19;;;6.66;100.00
55217;BME280;41086;46.736;15.666;2022-10-23T01:11:11;98934.63;;;6.56;100.00
55217;BME280;41086;46.736;15.666;2022-10-23T01:13:47;98924.38;;;6.50;100.00
55217;BME280;41086;46.736;15.666;2022-10-23T01:16:22;98915.78;;;6.47;100.00
55217;BME280;41086;46.736;15.666;2022-10-23T01:19:00;98915.28;;;6.38;100.00
55217;BME280;41086;46.736;15.666;2022-10-23T01:21:55;98915.13;;;6.41;100.00
55217;BME280;41086;46.736;15.666;2022-10-23T01:27:34;98920.91;;;6.50;100.00
55217;BME280;41086;46.736;15.666;2022-10-23T01:30:11;98918.19;;;6.51;100.00
55217;BME280;41086;46.736;15.666;2022-10-23T01:32:56;98915.44;;;6.54;100.00
55217;BME280;41086;46.736;15.666;2022-10-23T01:35:33;98911.81;;;6.57;100.00
55217;BME280;41086;46.736;15.666;2022-10-23T01:38:22;98905.81;;;6.53;100.00
55217;BME280;41086;46.736;15.666;2022-10-23T01:41:02;98914.66;;;6.52;100.00
55217;BME280;41086;46.736;15.666;2022-10-23T01:43:41;98896.41;;;6.48;100.00
55217;BME280;41086;46.736;15.666;2022-10-23T01:46:11;98899.00;;;6.49;100.00
55217;BME280;41086;46.736;15.666;2022-10-23T01:48:42;98905.25;;;6.47;100.00
55217;BME280;41086;46.736;15.666;2022-10-23T01:51:12;98896.69;;;6.41;100.00
55217;BME280;41086;46.736;15.666;2022-10-23T01:53:42;98901.81;;;6.44;100.00
55217;BME280;41086;46.736;15.666;2022-10-23T01:56:16;98902.94;;;6.39;100.00
55217;BME280;41086;46.736;15.666;2022-10-23T01:58:47;98894.03;;;6.22;100.00
55217;BME280;41086;46.736;15.666;2022-10-23T02:01:17;98909.69;;;6.26;100.00
55217;BME280;41086;46.736;15.666;2022-10-23T02:03:50;98909.13;;;6.19;100.00
55217;BME280;41086;46.736;15.666;2022-10-23T02:06:18;98912.84;;;6.13;100.00
55217;BME280;41086;46.736;15.666;2022-10-23T02:08:45;98909.50;;;6.10;100.00
55217;BME280;41086;46.736;15.666;2022-10-23T02:11:14;98901.09;;;6.02;100.00
55217;BME280;41086;46.736;15.666;2022-10-23T02:16:28;98903.97;;;5.95;100.00
55217;BME280;41086;46.736;15.666;2022-10-23T02:22:09;98894.25;;;5.97;100.00
55217;BME280;41086;46.736;15.666;2022-10-23T02:27:28;98911.03;;;5.95;100.00
55217;BME280;41086;46.736;15.666;2022-10-23T02:30:11;98911.88;;;5.95;100.00
55217;BME280;41086;46.736;15.666;2022-10-23T02:32:45;98907.41;;;5.97;100.00
55217;BME280;41086;46.736;15.666;2022-10-23T02:35:19;98896.09;;;5.95;100.00
55217;BME280;41086;46.736;15.666;2022-10-23T02:37:53;98898.59;;;5.98;100.00
55217;BME280;41086;46.736;15.666;2022-10-23T02:40:23;98903.00;;;5.98;100.00
55217;BME280;41086;46.736;15.666;2022-10-23T02:43:10;98894.25;;;5.97;100.00
55217;BME280;41086;46.736;15.666;2022-10-23T02:48:43;98904.56;;;6.02;100.00
55217;BME280;41086;46.736;15.666;2022-10-23T02:51:34;98894.25;;;5.97;100.00
55217;BME280;41086;46.736;15.666;2022-10-23T02:54:18;98900.50;;;5.95;100.00
55217;BME280;41086;46.736;15.666;2022-10-23T02:57:01;98894.56;;;5.90;100.00
55217;BME280;41086;46.736;15.666;2022-10-23T03:02:09;98903.56;;;5.84;100.00
55217;BME280;41086;46.736;15.666;2022-10-23T03:04:43;98904.41;;;5.85;100.00
55217;BME280;41086;46.736;15.666;2022-10-23T03:07:12;98912.03;;;5.91;100.00
55217;BME280;41086;46.736;15.666;2022-10-23T03:09:41;98911.22;;;5.89;100.00
55217;BME280;41086;46.736;15.666;2022-10-23T03:12:07;98914.63;;;5.92;100.00
55217;BME280;41086;46.736;15.666;2022-10-23T03:14:35;98912.88;;;5.91;100.00
55217;BME280;41086;46.736;15.666;2022-10-23T03:17:03;98922.22;;;6.00;100.00
55217;BME280;41086;46.736;15.666;2022-10-23T03:19:30;98930.09;;;6.00;100.00
55217;BME280;41086;46.736;15.666;2022-10-23T03:21:57;98915.34;;;5.96;100.00
55217;BME280;41086;46.736;15.666;2022-10-23T03:24:24;98919.22;;;6.08;100.00
55217;BME280;41086;46.736;15.666;2022-10-23T03:26:51;98916.72;;;6.05;100.00
55217;BME280;41086;46.736;15.666;2022-10-23T03:29:28;98909.69;;;6.05;100.00
55217;BME280;41086;46.736;15.666;2022-10-23T03:31:54;98914.94;;;6.05;100.00
55217;BME280;41086;46.736;15.666;2022-10-23T03:34:22;98909.25;;;5.95;100.00
55217;BME280;41086;46.736;15.666;2022-10-23T03:36:51;98914.38;;;5.98;100.00
55217;BME280;41086;46.736;15.666;2022-10-23T03:39:19;98897.94;;;5.93;100.00
55217;BME280;41086;46.736;15.666;2022-10-23T03:41:46;98902.19;;;5.96;100.00
55217;BME280;41086;46.736;15.666;2022-10-23T03:44:15;98895.28;;;5.93;100.00
55217;BME280;41086;46.736;15.666;2022-10-23T03:46:43;98904.28;;;5.88;100.00
55217;BME280;41086;46.736;15.666;2022-10-23T03:49:10;98907.97;;;5.84;100.00
55217;BME280;41086;46.736;15.666;2022-10-23T03:51:41;98908.69;;;5.87;100.00
55217;BME280;41086;46.736;15.666;2022-10-23T03:54:10;98898.16;;;5.87;100.00
55217;BME280;41086;46.736;15.666;2022-10-23T03:56:37;98898.09;;;5.89;100.00
55217;BME280;41086;46.736;15.666;2022-10-23T03:59:06;98898.09;;;5.89;100.00
55217;BME280;41086;46.736;15.666;2022-10-23T04:01:32;98900.09;;;5.84;100.00
55217;BME280;41086;46.736;15.666;2022-10-23T04:03:59;98899.19;;;5.83;100.00
55217;BME280;41086;46.736;15.666;2022-10-23T04:06:27;98898.44;;;5.81;100.00
55217;BME280;41086;46.736;15.666;2022-10-23T04:08:56;98885.75;;;5.70;100.00
55217;BME280;41086;46.736;15.666;2022-10-23T04:11:22;98891.84;;;5.71;100.00
55217;BME280;41086;46.736;15.666;2022-10-23T04:13:49;98896.31;;;5.69;100.00
55217;BME280;41086;46.736;15.666;2022-10-23T04:16:16;98890.25;;;5.67;100.00
55217;BME280;41086;46.736;15.666;2022-10-23T04:18:43;98890.91;;;5.72;100.00
55217;BME280;41086;46.736;15.666;2022-10-23T04:21:11;98889.09;;;5.74;100.00
55217;BME280;41086;46.736;15.666;2022-10-23T04:23:38;98896.94;;;5.75;100.00
55217;BME280;41086;46.736;15.666;2022-10-23T04:26:11;98892.50;;;5.76;100.00
55217;BME280;41086;46.736;15.666;2022-10-23T04:28:38;98887.38;;;5.73;100.00
55217;BME280;41086;46.736;15.666;2022-10-23T04:31:05;98883.34;;;5.64;100.00
55217;BME280;41086;46.736;15.666;2022-10-23T04:33:32;98880.13;;;5.58;100.00
55217;BME280;41086;46.736;15.666;2022-10-23T04:35:58;98881.91;;;5.57;100.00
55217;BME280;41086;46.736;15.666;2022-10-23T04:38:25;98883.03;;;5.51;100.00
55217;BME280;41086;46.736;15.666;2022-10-23T04:40:52;98866.63;;;5.45;100.00
55217;BME280;41086;46.736;15.666;2022-10-23T04:43:20;98877.03;;;5.48;100.00
55217;BME280;41086;46.736;15.666;2022-10-23T04:45:48;98856.56;;;5.34;100.00
55217;BME280;41086;46.736;15.666;2022-10-23T04:48:15;98879.88;;;5.43;100.00
55217;BME280;41086;46.736;15.666;2022-10-23T04:51:08;98876.16;;;5.47;100.00
55217;BME280;41086;46.736;15.666;2022-10-23T04:53:53;98871.84;;;5.46;100.00
55217;BME280;41086;46.736;15.666;2022-10-23T04:56:38;98873.28;;;5.53;100.00
55217;BME280;41086;46.736;15.666;2022-10-23T04:59:09;98875.13;;;5.51;100.00
55217;BME280;41086;46.736;15.666;2022-10-23T05:01:38;98869.13;;;5.48;100.00
55217;BME280;41086;46.736;15.666;2022-10-23T05:04:06;98881.97;;;5.55;100.00
55217;BME280;41086;46.736;15.666;2022-10-23T05:06:44;98888.69;;;5.63;100.00
55217;BME280;41086;46.736;15.666;2022-10-23T05:09:20;98867.91;;;5.57;100.00
55217;BME280;41086;46.736;15.666;2022-10-23T05:11:58;98871.97;;;5.64;100.00
55217;BME280;41086;46.736;15.666;2022-10-23T05:14:25;98879.41;;;5.74;100.00
55217;BME280;41086;46.736;15.666;2022-10-23T05:17:01;98874.94;;;5.76;100.00
55217;BME280;41086;46.736;15.666;2022-10-23T05:19:35;98869.69;;;5.76;100.00
55217;BME280;41086;46.736;15.666;2022-10-23T05:22:05;98868.63;;;5.81;100.00
55217;BME280;41086;46.736;15.666;2022-10-23T05:24:45;98867.38;;;5.69;100.00
55217;BME280;41086;46.736;15.666;2022-10-23T05:27:19;98839.09;;;5.53;100.00
55217;BME280;41086;46.736;15.666;2022-10-23T05:29:46;98867.25;;;5.72;100.00
55217;BME280;41086;46.736;15.666;2022-10-23T05:32:14;98865.38;;;5.75;100.00
55217;BME280;41086;46.736;15.666;2022-10-23T05:34:42;98859.09;;;5.78;100.00
55217;BME280;41086;46.736;15.666;2022-10-23T05:37:11;98861.63;;;5.81;100.00
55217;BME280;41086;46.736;15.666;2022-10-23T05:39:39;98859.69;;;5.85;100.00
55217;BME280;41086;46.736;15.666;2022-10-23T05:42:11;98864.34;;;5.78;100.00
55217;BME280;41086;46.736;15.666;2022-10-23T05:44:38;98864.25;;;5.81;100.00
55217;BME280;41086;46.736;15.666;2022-10-23T05:47:17;98865.66;;;5.88;100.00
55217;BME280;41086;46.736;15.666;2022-10-23T05:49:43;98852.66;;;5.85;100.00
55217;BME280;41086;46.736;15.666;2022-10-23T05:52:16;98860.41;;;5.88;100.00
55217;BME280;41086;46.736;15.666;2022-10-23T05:54:51;98858.47;;;5.93;100.00
55217;BME280;41086;46.736;15.666;2022-10-23T05:57:36;98858.19;;;5.79;100.00
55217;BME280;41086;46.736;15.666;2022-10-23T06:00:08;98865.47;;;5.72;100.00
55217;BME280;41086;46.736;15.666;2022-10-23T06:02:41;98874.44;;;5.68;100.00
55217;BME280;41086;46.736;15.666;2022-10-23T06:05:21;98880.47;;;5.70;100.00
55217;BME280;41086;46.736;15.666;2022-10-23T06:08:09;98873.44;;;5.71;100.00
55217;BME280;41086;46.736;15.666;2022-10-23T06:10:36;98878.56;;;5.74;100.00
55217;BME280;41086;46.736;15.666;2022-10-23T06:13:06;98871.19;;;5.82;100.00
55217;BME280;41086;46.736;15.666;2022-10-23T06:15:33;98867.59;;;5.85;100.00
55217;BME280;41086;46.736;15.666;2022-10-23T06:18:10;98876.97;;;5.70;100.00
55217;BME280;41086;46.736;15.666;2022-10-23T06:20:47;98887.75;;;5.64;100.00
55217;BME280;41086;46.736;15.666;2022-10-23T06:23:22;98875.53;;;5.63;100.00
55217;BME280;41086;46.736;15.666;2022-10-23T06:26:18;98896.63;;;5.61;100.00
55217;BME280;41086;46.736;15.666;2022-10-23T06:29:01;98889.59;;;5.62;100.00
55217;BME280;41086;46.736;15.666;2022-10-23T06:31:28;98892.28;;;5.60;100.00
55217;BME280;41086;46.736;15.666;2022-10-23T06:33:57;98898.28;;;5.64;100.00
55217;BME280;41086;46.736;15.666;2022-10-23T06:36:26;98891.59;;;5.57;100.00
55217;BME280;41086;46.736;15.666;2022-10-23T06:38:59;98887.56;;;5.68;100.00
55217;BME280;41086;46.736;15.666;2022-10-23T06:41:46;98892.56;;;5.74;100.00
55217;BME280;41086;46.736;15.666;2022-10-23T06:44:33;98899.88;;;5.68;100.00
55217;BME280;41086;46.736;15.666;2022-10-23T06:47:07;98899.88;;;5.68;100.00
55217;BME280;41086;46.736;15.666;2022-10-23T06:49:55;98897.78;;;5.76;100.00
55217;BME280;41086;46.736;15.666;2022-10-23T06:52:21;98907.03;;;5.85;100.00
55217;BME280;41086;46.736;15.666;2022-10-23T06:55:09;98910.09;;;5.96;100.00
55217;BME280;41086;46.736;15.666;2022-10-23T06:57:37;98905.16;;;6.09;100.00
55217;BME280;41086;46.736;15.666;2022-10-23T07:00:05;98912.00;;;6.13;100.00
55217;BME280;41086;46.736;15.666;2022-10-23T07:02:43;98915.47;;;6.13;100.00
55217;BME280;41086;46.736;15.666;2022-10-23T07:05:12;98902.97;;;6.18;100.00
55217;BME280;41086;46.736;15.666;2022-10-23T07:07:41;98900.75;;;6.30;100.00
55217;BME280;41086;46.736;15.666;2022-10-23T07:10:10;98898.88;;;6.32;100.00
55217;BME280;41086;46.736;15.666;2022-10-23T07:12:40;98912.00;;;6.52;100.00
55217;BME280;41086;46.736;15.666;2022-10-23T07:15:33;98908.59;;;6.69;100.00
55217;BME280;41086;46.736;15.666;2022-10-23T07:18:01;98906.31;;;6.99;100.00
55217;BME280;41086;46.736;15.666;2022-10-23T07:20:46;98907.78;;;7.24;100.00
55217;BME280;41086;46.736;15.666;2022-10-23T07:23:14;98907.00;;;7.22;100.00
55217;BME280;41086;46.736;15.666;2022-10-23T07:25:43;98901.19;;;7.32;100.00
55217;BME280;41086;46.736;15.666;2022-10-23T07:28:18;98905.88;;;7.45;100.00
55217;BME280;41086;46.736;15.666;2022-10-23T07:30:55;98915.97;;;7.37;100.00
55217;BME280;41086;46.736;15.666;2022-10-23T07:33:22;98909.75;;;7.38;100.00
55217;BME280;41086;46.736;15.666;2022-10-23T07:35:59;98898.28;;;7.39;100.00
55217;BME280;41086;46.736;15.666;2022-10-23T07:38:27;98900.31;;;7.51;100.00
55217;BME280;41086;46.736;15.666;2022-10-23T07:40:56;98887.44;;;7.62;100.00
55217;BME280;41086;46.736;15.666;2022-10-23T07:43:24;98894.81;;;7.55;100.00
55217;BME280;41086;46.736;15.666;2022-10-23T07:45:52;98895.28;;;7.64;100.00
55217;BME280;41086;46.736;15.666;2022-10-23T07:48:24;98898.09;;;7.95;100.00
55217;BME280;41086;46.736;15.666;2022-10-23T07:51:01;98903.97;;;8.00;100.00
55217;BME280;41086;46.736;15.666;2022-10-23T07:53:29;98908.16;;;8.05;100.00
55217;BME280;41086;46.736;15.666;2022-10-23T07:56:15;98892.25;;;8.06;100.00
55217;BME280;41086;46.736;15.666;2022-10-23T07:59:12;98884.47;;;8.20;100.00
55217;BME280;41086;46.736;15.666;2022-10-23T08:01:42;98893.63;;;8.31;100.00
55217;BME280;41086;46.736;15.666;2022-10-23T08:04:10;98889.16;;;8.49;100.00
55217;BME280;41086;46.736;15.666;2022-10-23T08:06:45;98889.25;;;8.63;100.00
55217;BME280;41086;46.736;15.666;2022-10-23T08:09:12;98871.72;;;8.78;100.00
55217;BME280;41086;46.736;15.666;2022-10-23T08:11:41;98896.19;;;8.97;100.00
55217;BME280;41086;46.736;15.666;2022-10-23T08:14:09;98890.50;;;9.05;100.00
55217;BME280;41086;46.736;15.666;2022-10-23T08:16:38;98884.38;;;9.04;100.00
55217;BME280;41086;46.736;15.666;2022-10-23T08:19:06;98877.75;;;9.27;100.00
55217;BME280;41086;46.736;15.666;2022-10-23T08:21:36;98868.13;;;9.42;100.00
55217;BME280;41086;46.736;15.666;2022-10-23T08:24:04;98858.41;;;9.57;100.00
55217;BME280;41086;46.736;15.666;2022-10-23T08:26:30;98866.22;;;9.74;100.00
55217;BME280;41086;46.736;15.666;2022-10-23T08:28:58;98871.94;;;9.83;100.00
55217;BME280;41086;46.736;15.666;2022-10-23T08:31:26;98869.16;;;9.84;100.00
55217;BME280;41086;46.736;15.666;2022-10-23T08:34:26;98858.72;;;9.97;100.00
55217;BME280;41086;46.736;15.666;2022-10-23T08:36:54;98852.84;;;10.06;100.00
55217;BME280;41086;46.736;15.666;2022-10-23T08:39:22;98863.34;;;10.08;100.00
55217;BME280;41086;46.736;15.666;2022-10-23T08:42:30;98854.13;;;10.29;100.00
55217;BME280;41086;46.736;15.666;2022-10-23T08:45:06;98848.16;;;10.54;100.00
55217;BME280;41086;46.736;15.666;2022-10-23T08:47:41;98845.84;;;10.77;100.00
55217;BME280;41086;46.736;15.666;2022-10-23T08:50:38;98840.72;;;10.88;100.00
55217;BME280;41086;46.736;15.666;2022-10-23T08:56:02;98856.00;;;11.12;100.00
55217;BME280;41086;46.736;15.666;2022-10-23T08:58:38;98898.03;;;11.18;100.00
55217;BME280;41086;46.736;15.666;2022-10-23T09:01:29;98899.97;;;11.01;100.00
55217;BME280;41086;46.736;15.666;2022-10-23T09:03:58;98910.38;;;11.04;100.00
55217;BME280;41086;46.736;15.666;2022-10-23T09:06:34;98865.41;;;11.30;100.00
55217;BME280;41086;46.736;15.666;2022-10-23T09:09:16;98888.09;;;11.48;100.00
55217;BME280;41086;46.736;15.666;2022-10-23T09:12:04;98828.53;;;11.52;100.00
55217;BME280;41086;46.736;15.666;2022-10-23T09:17:39;98906.09;;;11.97;100.00
55217;BME280;41086;46.736;15.666;2022-10-23T09:20:20;98890.91;;;12.12;100.00
55217;BME280;41086;46.736;15.666;2022-10-23T09:22:49;98901.78;;;12.22;100.00
55217;BME280;41086;46.736;15.666;2022-10-23T09:25:24;98901.44;;;12.39;100.00
55217;BME280;41086;46.736;15.666;2022-10-23T09:27:53;98895.16;;;12.53;100.00
55217;BME280;41086;46.736;15.666;2022-10-23T09:32:58;98971.84;;;12.98;100.00
55217;BME280;41086;46.736;15.666;2022-10-23T09:35:28;98984.03;;;13.13;100.00
55217;BME280;41086;46.736;15.666;2022-10-23T09:37:59;98994.91;;;13.23;100.00
55217;BME280;41086;46.736;15.666;2022-10-23T09:40:42;99006.03;;;13.41;100.00
55217;BME280;41086;46.736;15.666;2022-10-23T09:43:15;98995.63;;;13.38;100.00
55217;BME280;41086;46.736;15.666;2022-10-23T09:45:57;99003.38;;;13.41;100.00
55217;BME280;41086;46.736;15.666;2022-10-23T09:48:24;99001.22;;;13.59;100.00
55217;BME280;41086;46.736;15.666;2022-10-23T09:53:46;99013.63;;;13.95;100.00
55217;BME280;41086;46.736;15.666;2022-10-23T09:56:38;99012.81;;;14.30;100.00
55217;BME280;41086;46.736;15.666;2022-10-23T09:59:26;99013.22;;;14.60;100.00
55217;BME280;41086;46.736;15.666;2022-10-23T10:01:59;99010.22;;;14.99;100.00
55217;BME280;41086;46.736;15.666;2022-10-23T10:04:37;99010.47;;;15.29;100.00
55217;BME280;41086;46.736;15.666;2022-10-23T10:07:14;99005.72;;;15.56;100.00
55217;BME280;41086;46.736;15.666;2022-10-23T10:09:43;99002.47;;;15.95;100.00
55217;BME280;41086;46.736;15.666;2022-10-23T10:15:12;98991.09;;;16.89;100.00
55217;BME280;41086;46.736;15.666;2022-10-23T10:18:12;99003.94;;;17.25;100.00
55217;BME280;41086;46.736;15.666;2022-10-23T10:23:39;98994.13;;;17.96;100.00
55217;BME280;41086;46.736;15.666;2022-10-23T10:29:20;98979.69;;;18.84;100.00
55217;BME280;41086;46.736;15.666;2022-10-23T10:32:12;98986.78;;;19.13;100.00
55217;BME280;41086;46.736;15.666;2022-10-23T10:34:54;98965.19;;;19.32;100.00
55217;BME280;41086;46.736;15.666;2022-10-23T10:40:40;98967.13;;;19.95;100.00
55217;BME280;41086;46.736;15.666;2022-10-23T10:46:22;98960.97;;;20.21;100.00
55217;BME280;41086;46.736;15.666;2022-10-23T10:57:43;98932.91;;;20.05;100.00
55217;BME280;41086;46.736;15.666;2022-10-23T11:00:18;98944.59;;;20.14;100.00
55217;BME280;41086;46.736;15.666;2022-10-23T11:02:48;98939.16;;;20.50;100.00
55217;BME280;41086;46.736;15.666;2022-10-23T11:05:32;98929.69;;;20.46;100.00
55217;BME280;41086;46.736;15.666;2022-10-23T11:08:06;98919.78;;;20.46;100.00
55217;BME280;41086;46.736;15.666;2022-10-23T11:10:45;98915.78;;;20.50;100.00
55217;BME280;41086;46.736;15.666;2022-10-23T11:15:51;98912.75;;;20.71;100.00
55217;BME280;41086;46.736;15.666;2022-10-23T11:18:25;98905.94;;;20.85;100.00
55217;BME280;41086;46.736;15.666;2022-10-23T11:23:52;98902.63;;;20.99;100.00
55217;BME280;41086;46.736;15.666;2022-10-23T11:34:38;98899.47;;;20.78;100.00
55217;BME280;41086;46.736;15.666;2022-10-23T11:37:15;98885.78;;;20.45;100.00
55217;BME280;41086;46.736;15.666;2022-10-23T11:40:41;98875.50;;;20.41;100.00
55217;BME280;41086;46.736;15.666;2022-10-23T11:47:58;98793.25;;;20.12;100.00
55217;BME280;41086;46.736;15.666;2022-10-23T11:50:30;98849.56;;;20.57;100.00
55217;BME280;41086;46.736;15.666;2022-10-23T11:53:02;98845.94;;;20.49;100.00
55217;BME280;41086;46.736;15.666;2022-10-23T11:56:05;98834.97;;;20.42;100.00
55217;BME280;41086;46.736;15.666;2022-10-23T11:58:49;98838.50;;;20.69;100.00
55217;BME280;41086;46.736;15.666;2022-10-23T12:06:46;98836.09;;;21.42;100.00
55217;BME280;41086;46.736;15.666;2022-10-23T12:09:22;98835.44;;;21.65;100.00
55217;BME280;41086;46.736;15.666;2022-10-23T12:14:36;98844.78;;;21.28;100.00
55217;BME280;41086;46.736;15.666;2022-10-23T12:17:29;98829.47;;;21.37;100.00
55217;BME280;41086;46.736;15.666;2022-10-23T12:20:15;98817.03;;;21.44;100.00
55217;BME280;41086;46.736;15.666;2022-10-23T12:29:36;98812.53;;;22.18;100.00
55217;BME280;41086;46.736;15.666;2022-10-23T12:35:38;98802.31;;;22.92;100.00
55217;BME280;41086;46.736;15.666;2022-10-23T12:38:26;98775.94;;;23.03;97.71
55217;BME280;41086;46.736;15.666;2022-10-23T12:43:33;98778.66;;;23.03;97.32
55217;BME280;41086;46.736;15.666;2022-10-23T12:46:22;98770.91;;;23.22;94.39
55217;BME280;41086;46.736;15.666;2022-10-23T12:48:53;98786.34;;;23.37;97.00
55217;BME280;41086;46.736;15.666;2022-10-23T12:51:38;98767.13;;;23.09;95.91
55217;BME280;41086;46.736;15.666;2022-10-23T12:54:21;98780.88;;;22.99;96.12
55217;BME280;41086;46.736;15.666;2022-10-23T12:56:48;98779.25;;;22.73;96.63
55217;BME280;41086;46.736;15.666;2022-10-23T12:59:37;98766.75;;;22.33;97.55
55217;BME280;41086;46.736;15.666;2022-10-23T13:02:37;98752.28;;;21.93;100.00
55217;BME280;41086;46.736;15.666;2022-10-23T13:05:06;98747.09;;;21.75;100.00
55217;BME280;41086;46.736;15.666;2022-10-23T13:07:36;98745.75;;;21.71;100.00
55217;BME280;41086;46.736;15.666;2022-10-23T13:10:17;98741.03;;;21.49;100.00
55217;BME280;41086;46.736;15.666;2022-10-23T13:12:57;98736.66;;;21.39;100.00
55217;BME280;41086;46.736;15.666;2022-10-23T13:15:38;98738.81;;;21.28;100.00
55217;BME280;41086;46.736;15.666;2022-10-23T13:18:06;98715.41;;;21.20;100.00
55217;BME280;41086;46.736;15.666;2022-10-23T13:20:36;98719.78;;;21.21;100.00
55217;BME280;41086;46.736;15.666;2022-10-23T13:28:49;98722.56;;;20.87;100.00
55217;BME280;41086;46.736;15.666;2022-10-23T13:36:27;98708.31;;;21.84;100.00
55217;BME280;41086;46.736;15.666;2022-10-23T13:39:03;98705.56;;;22.01;100.00
55217;BME280;41086;46.736;15.666;2022-10-23T13:41:45;98701.50;;;22.13;100.00
55217;BME280;41086;46.736;15.666;2022-10-23T13:44:17;98698.97;;;22.11;100.00
55217;BME280;41086;46.736;15.666;2022-10-23T13:46:44;98689.22;;;22.02;100.00
55217;BME280;41086;46.736;15.666;2022-10-23T13:49:11;98690.88;;;22.20;100.00
55217;BME280;41086;46.736;15.666;2022-10-23T13:51:45;98691.28;;;22.48;100.00
55217;BME280;41086;46.736;15.666;2022-10-23T13:54:17;98693.78;;;22.49;100.00
55217;BME280;41086;46.736;15.666;2022-10-23T13:56:45;98692.22;;;22.55;100.00
55217;BME280;41086;46.736;15.666;2022-10-23T13:59:12;98691.19;;;22.64;100.00
55217;BME280;41086;46.736;15.666;2022-10-23T14:01:39;98702.59;;;22.74;100.00
55217;BME280;41086;46.736;15.666;2022-10-23T14:04:08;98683.78;;;22.58;100.00
55217;BME280;41086;46.736;15.666;2022-10-23T14:06:35;98698.03;;;22.44;100.00
55217;BME280;41086;46.736;15.666;2022-10-23T14:09:08;98702.03;;;22.56;100.00
55217;BME280;41086;46.736;15.666;2022-10-23T14:11:36;98688.59;;;22.71;100.00
55217;BME280;41086;46.736;15.666;2022-10-23T14:14:02;98701.94;;;22.72;100.00
55217;BME280;41086;46.736;15.666;2022-10-23T14:16:29;98690.59;;;22.77;100.00
55217;BME280;41086;46.736;15.666;2022-10-23T14:18:56;98698.56;;;22.70;100.00
55217;BME280;41086;46.736;15.666;2022-10-23T14:21:23;98690.59;;;22.46;100.00
55217;BME280;41086;46.736;15.666;2022-10-23T14:23:51;98689.25;;;22.42;100.00
55217;BME280;41086;46.736;15.666;2022-10-23T14:26:21;98682.66;;;22.44;100.00
55217;BME280;41086;46.736;15.666;2022-10-23T14:28:51;98690.56;;;22.54;100.00
55217;BME280;41086;46.736;15.666;2022-10-23T14:31:19;98689.38;;;22.56;100.00
55217;BME280;41086;46.736;15.666;2022-10-23T14:33:50;98669.13;;;22.52;100.00
55217;BME280;41086;46.736;15.666;2022-10-23T14:36:17;98666.53;;;22.67;100.00
55217;BME280;41086;46.736;15.666;2022-10-23T14:38:49;98687.34;;;22.82;100.00
55217;BME280;41086;46.736;15.666;2022-10-23T14:41:21;98678.00;;;22.69;100.00
55217;BME280;41086;46.736;15.666;2022-10-23T14:43:48;98679.31;;;22.73;100.00
55217;BME280;41086;46.736;15.666;2022-10-23T14:46:17;98681.66;;;22.76;100.00
55217;BME280;41086;46.736;15.666;2022-10-23T14:48:44;98678.78;;;22.78;100.00
55217;BME280;41086;46.736;15.666;2022-10-23T14:51:26;98673.19;;;22.79;100.00
55217;BME280;41086;46.736;15.666;2022-10-23T14:54:04;98675.47;;;22.68;100.00
55217;BME280;41086;46.736;15.666;2022-10-23T14:56:33;98658.88;;;22.71;100.00
55217;BME280;41086;46.736;15.666;2022-10-23T14:59:01;98665.44;;;22.76;100.00
55217;BME280;41086;46.736;15.666;2022-10-23T15:01:37;98672.88;;;22.74;100.00
55217;BME280;41086;46.736;15.666;2022-10-23T15:04:11;98667.72;;;22.65;100.00
55217;BME280;41086;46.736;15.666;2022-10-23T15:06:40;98662.03;;;22.51;100.00
55217;BME280;41086;46.736;15.666;2022-10-23T15:09:07;98652.41;;;22.26;100.00
55217;BME280;41086;46.736;15.666;2022-10-23T15:11:34;98656.66;;;22.04;100.00